createdAt,value
2023-01-28T00:00:50.502Z,2.50
2023-01-28T00:03:36.839Z,2.40
2023-01-28T00:06:23.682Z,2.40
2023-01-28T00:09:11.906Z,2.30
2023-01-28T00:11:58.931Z,2.30
2023-01-28T00:14:46.350Z,2.30
2023-01-28T00:17:33.078Z,2.30
2023-01-28T00:20:19.409Z,2.30
2023-01-28T00:23:05.919Z,2.30
2023-01-28T00:25:54.524Z,2.30
2023-01-28T00:28:40.925Z,2.30
2023-01-28T00:31:28.221Z,2.30
2023-01-28T00:34:14.532Z,2.30
2023-01-28T00:37:00.964Z,2.40
2023-01-28T00:39:47.607Z,2.40
2023-01-28T00:42:35.330Z,2.50
2023-01-28T00:45:21.704Z,2.50
2023-01-28T00:48:08.362Z,2.50
2023-01-28T00:50:54.935Z,2.60
2023-01-28T00:53:42.098Z,2.60
2023-01-28T00:56:29.035Z,2.60
2023-01-28T00:59:17.264Z,2.70
2023-01-28T01:02:12.626Z,2.90
2023-01-28T01:05:02.436Z,2.90
2023-01-28T01:07:49.019Z,3.00
2023-01-28T01:10:35.826Z,2.90
2023-01-28T01:13:22.158Z,3.00
2023-01-28T01:16:12.341Z,3.00
2023-01-28T01:18:59.201Z,2.90
2023-01-28T01:21:50.288Z,2.80
2023-01-28T01:24:36.832Z,2.70
2023-01-28T01:27:23.128Z,2.80
2023-01-28T01:30:10.982Z,2.80
2023-01-28T01:32:58.722Z,2.90
2023-01-28T01:35:45.798Z,2.90
2023-01-28T01:38:32.224Z,2.80
2023-01-28T01:41:25.623Z,2.80
2023-01-28T01:44:45.444Z,2.90
2023-01-28T01:47:41.810Z,2.90
2023-01-28T01:50:33.850Z,2.90
2023-01-28T01:53:23.500Z,3.00
2023-01-28T01:56:15.607Z,3.10
2023-01-28T01:59:03.509Z,3.10
2023-01-28T02:01:51.817Z,3.00
2023-01-28T02:04:41.195Z,2.80
2023-01-28T02:07:29.563Z,2.80
2023-01-28T02:10:17.071Z,2.80
2023-01-28T02:13:03.711Z,2.90
2023-01-28T02:15:50.776Z,3.00
2023-01-28T02:18:37.480Z,3.00
2023-01-28T02:21:52.390Z,3.00
2023-01-28T02:25:07.423Z,3.00
2023-01-28T02:28:10.799Z,2.90
2023-01-28T02:31:05.790Z,2.80
2023-01-28T02:33:59.873Z,2.70
2023-01-28T02:36:52.361Z,2.70
2023-01-28T02:39:43.606Z,2.70
2023-01-28T02:42:33.523Z,2.80
2023-01-28T02:45:25.151Z,2.80
2023-01-28T02:48:13.319Z,2.80
2023-01-28T02:51:06.138Z,2.70
2023-01-28T02:53:59.112Z,2.80
2023-01-28T02:56:52.590Z,2.90
2023-01-28T02:59:49.499Z,2.90
2023-01-28T03:02:43.718Z,3.00
2023-01-28T03:05:36.592Z,3.10
2023-01-28T03:08:40.599Z,3.20
2023-01-28T03:11:46.993Z,3.30
2023-01-28T03:14:52.899Z,3.30
2023-01-28T03:18:03.710Z,3.20
2023-01-28T03:21:13.168Z,3.20
2023-01-28T03:24:19.750Z,3.20
2023-01-28T03:27:31.204Z,3.10
2023-01-28T03:30:45.815Z,3.10
2023-01-28T03:34:01.785Z,3.00
2023-01-28T03:36:53.190Z,2.90
2023-01-28T03:40:07.299Z,2.80
2023-01-28T03:42:56.770Z,2.80
2023-01-28T03:45:52.455Z,2.90
2023-01-28T03:48:39.543Z,2.80
2023-01-28T03:51:29.746Z,2.60
2023-01-28T03:54:16.641Z,2.50
2023-01-28T03:57:03.127Z,2.50
2023-01-28T03:59:50.485Z,2.50
2023-01-28T04:02:39.988Z,2.60
2023-01-28T04:05:29.922Z,2.50
2023-01-28T04:08:19.562Z,2.40
2023-01-28T04:11:26.909Z,2.30
2023-01-28T04:14:15.259Z,2.50
2023-01-28T04:17:10.708Z,2.70
2023-01-28T04:19:57.872Z,2.90
2023-01-28T04:22:45.740Z,3.00
2023-01-28T04:25:35.553Z,3.00
2023-01-28T04:28:25.817Z,2.90
2023-01-28T04:31:12.552Z,2.90
2023-01-28T04:34:02.140Z,2.80
2023-01-28T04:37:24.716Z,2.80
2023-01-28T04:40:26.685Z,2.80
2023-01-28T04:43:22.755Z,2.80
2023-01-28T04:46:19.355Z,2.80
2023-01-28T04:49:44.226Z,2.80
2023-01-28T04:52:45.477Z,2.80
2023-01-28T04:55:50.827Z,2.80
2023-01-28T04:58:38.822Z,2.70
2023-01-28T05:01:31.416Z,2.60
2023-01-28T05:04:18.545Z,2.60
2023-01-28T05:07:05.651Z,2.70
2023-01-28T05:09:53.252Z,2.40
2023-01-28T05:12:39.716Z,2.40
2023-01-28T05:15:29.019Z,2.30
2023-01-28T05:18:16.749Z,2.30
2023-01-28T05:21:10.205Z,2.20
2023-01-28T05:23:59.030Z,2.30
2023-01-28T05:26:45.772Z,2.30
2023-01-28T05:29:32.608Z,2.40
2023-01-28T05:32:20.956Z,2.50
2023-01-28T05:35:08.256Z,2.50
2023-01-28T05:37:54.915Z,2.50
2023-01-28T05:40:42.201Z,2.40
2023-01-28T05:43:29.707Z,2.30
2023-01-28T05:46:45.197Z,2.20
2023-01-28T05:49:53.050Z,2.30
2023-01-28T05:53:06.489Z,2.30
2023-01-28T05:55:54.957Z,2.20
2023-01-28T05:58:42.697Z,2.20
2023-01-28T06:01:29.718Z,2.10
2023-01-28T06:04:18.847Z,2.10
2023-01-28T06:07:06.888Z,2.10
2023-01-28T06:09:53.944Z,2.10
2023-01-28T06:12:41.938Z,2.10
2023-01-28T06:15:51.293Z,2.10
2023-01-28T06:18:58.061Z,2.20
2023-01-28T06:21:44.848Z,2.20
2023-01-28T06:24:33.080Z,2.30
2023-01-28T06:27:19.625Z,2.20
2023-01-28T06:30:07.016Z,2.20
2023-01-28T06:32:56.005Z,2.10
2023-01-28T06:35:42.798Z,2.10
2023-01-28T06:38:29.512Z,1.90
2023-01-28T06:41:17.130Z,1.90
2023-01-28T06:44:03.895Z,1.90
2023-01-28T06:46:50.489Z,1.90
2023-01-28T06:49:37.297Z,1.90
2023-01-28T06:52:23.560Z,1.90
2023-01-28T06:55:10.441Z,1.90
2023-01-28T06:57:58.051Z,1.90
2023-01-28T07:00:44.426Z,1.80
2023-01-28T07:03:31.358Z,1.80
2023-01-28T07:06:17.963Z,1.80
2023-01-28T07:09:04.555Z,1.90
2023-01-28T07:11:51.016Z,1.80
2023-01-28T07:14:38.636Z,1.80
2023-01-28T07:17:24.964Z,1.80
2023-01-28T07:20:14.598Z,1.80
2023-01-28T07:23:01.252Z,1.70
2023-01-28T07:25:48.069Z,1.70
2023-01-28T07:28:34.474Z,1.80
2023-01-28T07:31:22.503Z,1.80
2023-01-28T07:34:10.528Z,1.80
2023-01-28T07:36:57.572Z,1.80
2023-01-28T07:39:44.026Z,1.80
2023-01-28T07:42:30.912Z,1.80
2023-01-28T07:45:23.453Z,1.90
2023-01-28T07:48:13.382Z,1.90
2023-01-28T07:51:00.864Z,1.90
2023-01-28T07:53:47.535Z,1.90
2023-01-28T07:56:33.803Z,2.00
2023-01-28T07:59:20.078Z,2.00
2023-01-28T08:02:06.494Z,2.00
2023-01-28T08:04:54.208Z,2.00
2023-01-28T08:07:40.608Z,2.10
2023-01-28T08:10:27.011Z,2.20
2023-01-28T08:13:15.299Z,2.20
2023-01-28T08:16:01.802Z,2.20
2023-01-28T08:18:48.254Z,2.10
2023-01-28T08:21:35.942Z,2.20
2023-01-28T08:24:22.185Z,2.20
2023-01-28T08:27:08.692Z,2.30
2023-01-28T08:29:54.965Z,2.30
2023-01-28T08:32:41.409Z,2.30
2023-01-28T08:35:28.913Z,2.30
2023-01-28T08:38:17.844Z,2.40
2023-01-28T08:41:04.473Z,2.40
2023-01-28T08:43:51.011Z,2.30
2023-01-28T08:46:37.827Z,2.30
2023-01-28T08:49:24.819Z,2.30
2023-01-28T08:52:11.202Z,2.40
2023-01-28T08:54:58.969Z,2.40
2023-01-28T08:57:45.318Z,2.40
2023-01-28T09:00:31.765Z,2.50
2023-01-28T09:03:18.888Z,2.50
2023-01-28T09:06:06.163Z,2.50
2023-01-28T09:08:52.759Z,2.50
2023-01-28T09:11:40.504Z,2.50
2023-01-28T09:14:26.853Z,2.50
2023-01-28T09:17:13.153Z,2.40
2023-01-28T09:19:59.557Z,2.50
2023-01-28T09:22:45.934Z,2.50
2023-01-28T09:25:32.295Z,2.50
2023-01-28T09:28:20.062Z,2.60
2023-01-28T09:31:08.391Z,2.60
2023-01-28T09:33:57.113Z,2.70
2023-01-28T09:36:43.776Z,2.70
2023-01-28T09:39:30.171Z,2.70
2023-01-28T09:42:51.241Z,2.70
2023-01-28T09:45:43.472Z,2.70
2023-01-28T09:48:36.072Z,2.80
2023-01-28T09:51:34.914Z,2.80
2023-01-28T09:54:29.818Z,2.90
2023-01-28T09:57:22.161Z,3.00
2023-01-28T10:00:15.925Z,3.00
2023-01-28T10:03:23.539Z,3.00
2023-01-28T10:06:20.791Z,3.00
2023-01-28T10:09:28.571Z,3.10
2023-01-28T10:12:32.936Z,3.10
2023-01-28T10:15:29.743Z,3.10
2023-01-28T10:18:19.270Z,3.00
2023-01-28T10:21:14.373Z,3.10
2023-01-28T10:24:08.012Z,3.10
2023-01-28T10:26:54.795Z,3.00
2023-01-28T10:29:44.023Z,3.00
2023-01-28T10:32:32.035Z,3.00
2023-01-28T10:35:20.119Z,2.90
2023-01-28T10:38:09.473Z,2.90
2023-01-28T10:41:01.503Z,3.00
2023-01-28T10:43:49.977Z,3.00
2023-01-28T10:46:38.215Z,3.10
2023-01-28T10:49:28.314Z,3.00
2023-01-28T10:52:18.466Z,2.90
2023-01-28T10:55:07.536Z,2.90
2023-01-28T10:57:54.700Z,2.90
2023-01-28T11:00:41.252Z,2.90
2023-01-28T11:03:29.152Z,2.90
2023-01-28T11:06:26.203Z,2.90
2023-01-28T11:09:24.589Z,2.90
2023-01-28T11:12:18.962Z,3.00
2023-01-28T11:15:07.086Z,3.10
2023-01-28T11:17:58.639Z,3.10
2023-01-28T11:20:52.595Z,3.10
2023-01-28T11:23:43.021Z,3.10
2023-01-28T11:26:34.303Z,3.20
2023-01-28T11:29:29.628Z,3.00
2023-01-28T11:32:20.604Z,3.00
2023-01-28T11:35:07.825Z,3.00
2023-01-28T11:37:54.589Z,2.90
2023-01-28T11:40:51.835Z,2.90
2023-01-28T11:43:39.559Z,2.90
2023-01-28T11:46:48.951Z,2.80
2023-01-28T11:49:48.321Z,2.80
2023-01-28T11:53:05.085Z,2.90
2023-01-28T11:56:04.335Z,2.80
2023-01-28T11:59:02.172Z,2.90
2023-01-28T12:01:56.929Z,2.80
2023-01-28T12:04:59.236Z,2.90
2023-01-28T12:07:52.757Z,3.00
2023-01-28T12:10:51.131Z,3.00
2023-01-28T12:13:49.674Z,3.00
2023-01-28T12:17:00.713Z,3.10
2023-01-28T12:20:02.273Z,3.00
2023-01-28T12:23:03.079Z,3.20
2023-01-28T12:26:03.508Z,3.20
2023-01-28T12:29:09.616Z,3.20
2023-01-28T12:32:18.772Z,3.40
2023-01-28T12:35:32.650Z,3.40
2023-01-28T12:38:30.615Z,3.30
2023-01-28T12:41:19.834Z,3.30
2023-01-28T12:44:11.300Z,3.20
2023-01-28T12:47:04.443Z,3.20
2023-01-28T12:49:55.453Z,3.20
2023-01-28T12:52:47.481Z,3.20
2023-01-28T12:55:42.001Z,3.20
2023-01-28T12:58:38.302Z,3.20
2023-01-28T13:01:31.000Z,3.30
2023-01-28T13:04:30.188Z,3.30
2023-01-28T13:07:22.476Z,3.20
2023-01-28T13:10:18.785Z,3.10
2023-01-28T13:13:06.435Z,3.10
2023-01-28T13:15:52.837Z,3.10
2023-01-28T13:18:45.575Z,3.20
2023-01-28T13:21:47.273Z,3.20
2023-01-28T13:24:35.643Z,3.20
2023-01-28T13:27:27.299Z,3.20
2023-01-28T13:30:27.950Z,3.20
2023-01-28T13:33:30.501Z,3.20
2023-01-28T13:36:26.817Z,3.10
2023-01-28T13:39:21.785Z,3.10
2023-01-28T13:42:23.909Z,3.00
2023-01-28T13:45:23.174Z,3.00
2023-01-28T13:48:25.044Z,3.10
2023-01-28T13:51:19.936Z,3.10
2023-01-28T13:54:09.536Z,3.10
2023-01-28T13:57:19.211Z,3.20
2023-01-28T14:00:14.076Z,3.20
2023-01-28T14:03:26.158Z,3.30
2023-01-28T14:06:38.056Z,3.40
2023-01-28T14:10:14.852Z,3.40
2023-01-28T14:13:36.846Z,3.40
2023-01-28T14:16:31.489Z,3.40
2023-01-28T14:19:18.442Z,3.30
2023-01-28T14:22:08.540Z,3.30
2023-01-28T14:24:56.466Z,3.20
2023-01-28T14:27:48.189Z,3.30
2023-01-28T14:30:46.890Z,3.30
2023-01-28T14:33:34.061Z,3.30
2023-01-28T14:36:21.099Z,3.30
2023-01-28T14:39:16.329Z,3.30
2023-01-28T14:42:04.503Z,3.20
2023-01-28T14:45:03.209Z,3.40
2023-01-28T14:48:08.703Z,3.40
2023-01-28T14:51:11.549Z,3.40
2023-01-28T14:54:17.366Z,3.30
2023-01-28T14:57:30.764Z,3.30
2023-01-28T15:00:23.115Z,3.30
2023-01-28T15:03:26.616Z,3.30
2023-01-28T15:06:15.945Z,3.30
2023-01-28T15:09:10.654Z,3.40
2023-01-28T15:11:59.794Z,3.30
2023-01-28T15:14:48.698Z,3.30
2023-01-28T15:17:35.751Z,3.30
2023-01-28T15:20:25.852Z,3.30
2023-01-28T15:26:07.336Z,3.30
2023-01-28T15:28:55.384Z,3.30
2023-01-28T15:31:49.853Z,3.30
2023-01-28T15:34:38.075Z,3.30
2023-01-28T15:37:26.045Z,3.30
2023-01-28T15:40:21.585Z,3.30
2023-01-28T15:43:16.888Z,3.30
2023-01-28T15:46:04.245Z,3.30
2023-01-28T15:49:01.065Z,3.20
2023-01-28T15:51:51.982Z,3.30
2023-01-28T15:54:41.127Z,3.30
2023-01-28T15:57:32.001Z,3.20
2023-01-28T16:00:21.007Z,3.30
2023-01-28T16:03:10.289Z,3.40
2023-01-28T16:06:01.057Z,3.40
2023-01-28T16:08:52.752Z,3.30
2023-01-28T16:11:44.910Z,3.40
2023-01-28T16:14:35.508Z,3.50
2023-01-28T16:17:25.436Z,3.70
2023-01-28T16:20:22.848Z,3.70
2023-01-28T16:23:22.021Z,3.70
2023-01-28T16:26:22.255Z,3.60
2023-01-28T16:29:17.063Z,3.70
2023-01-28T16:32:04.280Z,3.60
2023-01-28T16:34:51.189Z,3.70
2023-01-28T16:37:39.406Z,3.80
2023-01-28T16:40:27.448Z,3.80
2023-01-28T16:43:16.303Z,3.70
2023-01-28T16:46:08.007Z,3.70
2023-01-28T16:48:56.322Z,3.70
2023-01-28T16:51:44.148Z,3.80
2023-01-28T16:54:30.940Z,3.80
2023-01-28T16:57:20.230Z,3.70
2023-01-28T17:00:08.483Z,3.60
2023-01-28T17:02:56.775Z,3.60
2023-01-28T17:05:43.252Z,3.40
2023-01-28T17:08:29.795Z,3.60
2023-01-28T17:11:16.842Z,3.50
2023-01-28T17:14:03.617Z,3.60
2023-01-28T17:16:50.397Z,3.70
2023-01-28T17:19:38.326Z,3.60
2023-01-28T17:22:25.323Z,3.60
2023-01-28T17:25:12.492Z,3.70
2023-01-28T17:27:59.111Z,3.60
2023-01-28T17:30:45.524Z,3.60
2023-01-28T17:33:31.795Z,3.60
2023-01-28T17:36:19.623Z,3.60
2023-01-28T17:39:07.370Z,3.70
2023-01-28T17:41:53.691Z,3.70
2023-01-28T17:44:40.282Z,3.70
2023-01-28T17:47:26.681Z,3.70
2023-01-28T17:50:13.360Z,3.60
2023-01-28T17:53:01.833Z,3.50
2023-01-28T17:55:48.192Z,3.50
2023-01-28T17:58:34.462Z,3.50
2023-01-28T18:01:21.646Z,3.30
2023-01-28T18:04:08.336Z,3.40
2023-01-28T18:06:54.732Z,3.40
2023-01-28T18:09:45.741Z,3.50
2023-01-28T18:12:32.245Z,3.50
2023-01-28T18:15:18.753Z,3.60
2023-01-28T18:18:05.957Z,3.60
2023-01-28T18:20:58.566Z,3.60
2023-01-28T18:23:45.340Z,3.50
2023-01-28T18:26:34.079Z,3.60
2023-01-28T18:29:23.889Z,3.60
2023-01-28T18:32:10.880Z,3.40
2023-01-28T18:34:57.144Z,3.30
2023-01-28T18:37:43.890Z,3.20
2023-01-28T18:40:30.253Z,3.00
2023-01-28T18:43:18.057Z,3.00
2023-01-28T18:46:11.698Z,3.10
2023-01-28T18:48:59.203Z,3.10
2023-01-28T18:51:45.995Z,3.00
2023-01-28T18:54:33.782Z,3.00
2023-01-28T18:57:21.062Z,3.00
2023-01-28T19:00:10.439Z,3.00
2023-01-28T19:02:56.632Z,3.10
2023-01-28T19:05:43.287Z,3.20
2023-01-28T19:08:29.558Z,3.30
2023-01-28T19:11:16.245Z,3.30
2023-01-28T19:14:03.346Z,3.30
2023-01-28T19:16:52.049Z,3.20
2023-01-28T19:19:38.907Z,3.20
2023-01-28T19:22:25.420Z,3.20
2023-01-28T19:25:11.811Z,3.20
2023-01-28T19:27:58.244Z,3.00
2023-01-28T19:30:46.002Z,3.10
2023-01-28T19:33:34.481Z,3.10
2023-01-28T19:36:21.310Z,3.20
2023-01-28T19:39:09.394Z,3.10
2023-01-28T19:41:55.920Z,3.00
2023-01-28T19:44:42.699Z,2.70
2023-01-28T19:47:29.496Z,2.80
2023-01-28T19:50:18.080Z,2.80
2023-01-28T19:53:04.739Z,2.80
2023-01-28T19:55:52.259Z,2.80
2023-01-28T19:58:40.851Z,2.90
2023-01-28T20:01:30.592Z,3.00
2023-01-28T20:04:17.245Z,3.00
2023-01-28T20:07:05.499Z,3.20
2023-01-28T20:09:52.088Z,3.00
2023-01-28T20:12:38.580Z,3.10
2023-01-28T20:15:25.323Z,3.00
2023-01-28T20:18:11.952Z,3.10
2023-01-28T20:20:58.299Z,3.10
2023-01-28T20:23:46.161Z,3.10
2023-01-28T20:26:34.476Z,3.20
2023-01-28T20:29:22.347Z,3.20
2023-01-28T20:32:16.539Z,3.30
2023-01-28T20:35:05.823Z,3.20
2023-01-28T20:37:52.534Z,3.20
2023-01-28T20:40:42.199Z,3.00
2023-01-28T20:43:29.012Z,2.80
2023-01-28T20:46:17.815Z,2.90
2023-01-28T20:49:06.457Z,2.80
2023-01-28T20:51:53.204Z,2.70
2023-01-28T20:54:39.439Z,2.80
2023-01-28T20:57:27.230Z,2.80
2023-01-28T21:00:15.008Z,3.00
2023-01-28T21:03:01.705Z,2.90
2023-01-28T21:05:49.060Z,2.80
2023-01-28T21:08:35.746Z,2.80
2023-01-28T21:11:23.432Z,2.80
2023-01-28T21:14:12.495Z,2.70
2023-01-28T21:16:59.127Z,2.70
2023-01-28T21:19:46.038Z,2.70
2023-01-28T21:22:32.328Z,2.60
2023-01-28T21:25:18.603Z,2.50
2023-01-28T21:28:05.394Z,2.50
2023-01-28T21:30:53.591Z,2.50
2023-01-28T21:33:40.120Z,2.60
2023-01-28T21:36:27.225Z,2.60
2023-01-28T21:39:13.575Z,2.70
2023-01-28T21:41:59.881Z,2.80
2023-01-28T21:44:47.111Z,2.80
2023-01-28T21:47:34.794Z,2.70
2023-01-28T21:50:21.164Z,2.70
2023-01-28T21:53:07.636Z,2.60
2023-01-28T21:55:54.053Z,2.60
2023-01-28T21:58:57.623Z,2.60
2023-01-28T22:01:44.676Z,2.50
2023-01-28T22:04:34.437Z,2.50
2023-01-28T22:07:21.207Z,2.60
2023-01-28T22:10:08.537Z,2.50
2023-01-28T22:12:55.105Z,2.60
2023-01-28T22:15:42.263Z,2.60
2023-01-28T22:18:28.990Z,2.50
2023-01-28T22:21:17.511Z,2.50
2023-01-28T22:24:04.128Z,2.50
2023-01-28T22:26:51.802Z,2.40
2023-01-28T22:29:38.351Z,2.40
2023-01-28T22:32:24.816Z,2.40
2023-01-28T22:35:11.684Z,2.30
2023-01-28T22:37:59.342Z,2.10
2023-01-28T22:40:45.783Z,2.00
2023-01-28T22:43:32.098Z,2.10
2023-01-28T22:46:19.202Z,2.00
2023-01-28T22:49:06.255Z,2.00
2023-01-28T22:51:52.889Z,2.10
2023-01-28T22:54:40.615Z,2.10
2023-01-28T22:57:27.430Z,2.10
2023-01-28T23:00:17.161Z,2.10
2023-01-28T23:03:03.759Z,2.20
2023-01-28T23:05:50.731Z,2.30
2023-01-28T23:08:37.240Z,2.30
2023-01-28T23:11:28.669Z,2.40
2023-01-28T23:14:32.988Z,2.40
2023-01-28T23:17:36.941Z,2.40
2023-01-28T23:20:41.015Z,2.30
2023-01-28T23:23:45.159Z,2.30
2023-01-28T23:26:33.209Z,2.30
2023-01-28T23:29:20.134Z,2.30
2023-01-28T23:32:09.781Z,2.30
2023-01-28T23:34:57.212Z,2.30
2023-01-28T23:37:44.342Z,2.30
2023-01-28T23:40:31.216Z,2.40
2023-01-28T23:43:19.390Z,2.50
2023-01-28T23:46:06.198Z,2.60
2023-01-28T23:48:52.748Z,2.60
2023-01-28T23:51:39.067Z,2.50
2023-01-28T23:54:25.536Z,2.50
2023-01-28T23:57:12.005Z,2.50
2023-01-28T23:59:59.753Z,2.60
